Terminal Aerodrome Forecast
Issued by NWS Boston, MA

Home | Current Version | Previous Version | Text Only | Print | Product List | Glossary On
Versions: 1 2 3 4 5 6 7 8 9 10 11 12 13 14 15 16 17 18 19 20 21 22 23 24 25 26 27 28 29
000
FTUS41 KBOX 241129
TAFORH
TAF
KORH 241129Z 2412/2512 05007KT 2SM BR VCSH OVC005
     FM241500 05007KT P6SM VCSH OVC008
     FM241800 02005KT P6SM VCSH BKN020
     FM242300 33004KT P6SM BKN025
     FM250000 00000KT P6SM OVC150
     FM250600 26006KT P6SM BKN090
     FM250900 26007KT P6SM SCT090
      AMD NOT SKED=

USA.gov is the U.S. government's official web portal to all federal, state and local government web resources and services.